McConnell AFB, Kansas
Current Conditions -  °F | °C
As of 4:54 AM on Wednesday 26 Nov 2014 (Local Time) from KWLD Reporting Station
Overcast Overcast  
Wind Chill:   Ceiling: 9000
Heat Index:   Visibility: 10mi
Dew Point: -1°   Wind: 8mph
Humidity: 70%   Direction: 310°NW
Pressure: 30.01"   Gusts: NA
Location:  37.38°N, 97.15°W
Report Text: KWLD 261054Z AUTO 31007KT 10SM OVC090 04/M01 A3001 RMK AO2 SLP165 T00391011
Loading
Personal Weather Stations






























Interactive Weather Map New forecast layout! Learn more

10-Day Weather Forecast

Advertisements
Track Severe Weather on mobile